createdAt,value
2019-05-30T00:00:30.881Z,9.07
2019-05-30T00:01:30.904Z,9.04
2019-05-30T00:02:30.893Z,9.01
2019-05-30T00:03:30.869Z,8.96
2019-05-30T00:04:30.869Z,8.94
2019-05-30T00:05:30.923Z,8.90
2019-05-30T00:06:30.913Z,8.86
2019-05-30T00:07:30.908Z,8.84
2019-05-30T00:08:30.900Z,8.80
2019-05-30T00:09:30.906Z,8.77
2019-05-30T00:10:30.894Z,8.72
2019-05-30T00:11:30.889Z,8.68
2019-05-30T00:12:30.888Z,8.65
2019-05-30T00:13:30.910Z,8.61
2019-05-30T00:14:30.918Z,8.58
2019-05-30T00:15:30.885Z,8.54
2019-05-30T00:16:30.946Z,8.50
2019-05-30T00:17:30.901Z,8.48
2019-05-30T00:18:30.930Z,8.43
2019-05-30T00:19:33.811Z,8.40
2019-05-30T00:20:30.936Z,8.36
2019-05-30T00:21:30.957Z,8.31
2019-05-30T00:22:30.901Z,8.29
2019-05-30T00:23:30.939Z,8.26
2019-05-30T00:24:30.940Z,8.22
2019-05-30T00:25:30.906Z,8.19
2019-05-30T00:26:30.971Z,8.15
2019-05-30T00:27:30.957Z,8.11
2019-05-30T00:28:30.929Z,8.09
2019-05-30T00:29:30.941Z,8.05
2019-05-30T00:30:30.895Z,8.01
2019-05-30T00:31:30.933Z,7.98
2019-05-30T00:32:30.901Z,7.94
2019-05-30T00:33:30.941Z,7.89
2019-05-30T00:34:30.941Z,7.86
2019-05-30T00:35:30.944Z,7.84
2019-05-30T00:36:30.951Z,7.81
2019-05-30T00:37:31.239Z,7.78
2019-05-30T00:38:30.966Z,7.74
2019-05-30T00:39:30.944Z,7.70
2019-05-30T00:40:30.974Z,7.68
2019-05-30T00:41:30.987Z,7.64
2019-05-30T00:42:30.979Z,7.62
2019-05-30T00:43:30.993Z,7.58
2019-05-30T00:44:30.937Z,7.56
2019-05-30T00:45:30.936Z,7.52
2019-05-30T00:46:30.917Z,7.49
2019-05-30T00:47:30.919Z,7.47
2019-05-30T00:48:31.024Z,7.43
2019-05-30T00:49:30.960Z,7.40
2019-05-30T00:50:30.929Z,7.37
2019-05-30T00:51:30.940Z,7.34
2019-05-30T00:52:30.938Z,7.30
2019-05-30T00:53:30.979Z,7.28
2019-05-30T00:54:30.966Z,7.25
2019-05-30T00:55:30.972Z,7.22
2019-05-30T00:56:30.965Z,7.20
2019-05-30T00:57:30.927Z,7.17
2019-05-30T00:58:30.981Z,7.14
2019-05-30T00:59:30.963Z,7.12
2019-05-30T01:00:42.564Z,7.10
2019-05-30T01:01:30.923Z,7.07
2019-05-30T01:02:30.974Z,7.05
2019-05-30T01:03:30.995Z,7.04
2019-05-30T01:04:31.255Z,7.01
2019-05-30T01:05:30.990Z,6.99
2019-05-30T01:06:30.989Z,6.98
2019-05-30T01:07:31.028Z,6.96
2019-05-30T01:08:30.992Z,6.94
2019-05-30T01:09:31.007Z,6.92
2019-05-30T01:10:30.967Z,6.91
2019-05-30T01:11:30.947Z,6.88
2019-05-30T01:12:30.955Z,6.87
2019-05-30T01:13:30.948Z,6.85
2019-05-30T01:14:31.008Z,6.84
2019-05-30T01:15:31.000Z,6.83
2019-05-30T01:16:30.978Z,6.82
2019-05-30T01:17:31.001Z,6.80
2019-05-30T01:18:30.976Z,6.79
2019-05-30T01:19:30.999Z,6.78
2019-05-30T01:20:31.015Z,6.77
2019-05-30T01:21:30.995Z,6.75
2019-05-30T01:22:30.996Z,6.74
2019-05-30T01:23:31.002Z,6.74
2019-05-30T01:24:31.004Z,6.72
2019-05-30T01:25:31.004Z,6.71
2019-05-30T01:26:30.972Z,6.70
2019-05-30T01:27:30.968Z,6.69
2019-05-30T01:28:30.966Z,6.67
2019-05-30T01:29:31.002Z,6.67
2019-05-30T01:30:31.020Z,6.66
2019-05-30T01:31:31.030Z,6.65
2019-05-30T01:32:31.010Z,6.65
2019-05-30T01:33:31.020Z,6.66
2019-05-30T01:34:31.001Z,6.66
2019-05-30T01:35:30.995Z,6.66
2019-05-30T01:36:31.053Z,6.65
2019-05-30T01:37:31.025Z,6.65
2019-05-30T01:38:31.031Z,6.66
2019-05-30T01:39:31.017Z,6.66
2019-05-30T01:40:31.046Z,6.66
2019-05-30T01:41:31.044Z,6.67
2019-05-30T01:42:31.048Z,6.65
2019-05-30T01:43:31.020Z,6.65
2019-05-30T01:44:30.996Z,6.70
2019-05-30T01:45:31.024Z,6.70
2019-05-30T01:46:31.003Z,6.69
2019-05-30T01:47:31.025Z,6.69
2019-05-30T01:48:30.978Z,6.68
2019-05-30T01:49:31.023Z,6.67
2019-05-30T01:50:31.057Z,6.65
2019-05-30T01:51:31.065Z,6.65
2019-05-30T01:52:31.071Z,6.66
2019-05-30T01:53:31.045Z,6.66
2019-05-30T01:54:31.003Z,6.66
2019-05-30T01:55:31.036Z,6.66
2019-05-30T01:56:31.278Z,6.69
2019-05-30T01:57:31.026Z,6.68
2019-05-30T01:58:31.010Z,6.68
2019-05-30T01:59:30.992Z,6.68
2019-05-30T02:00:31.018Z,6.69
2019-05-30T02:01:31.075Z,6.69
2019-05-30T02:02:31.050Z,6.70
2019-05-30T02:03:31.029Z,6.69
2019-05-30T02:04:31.044Z,6.69
2019-05-30T02:05:31.045Z,6.68
2019-05-30T02:06:31.038Z,6.67
2019-05-30T02:07:30.999Z,6.67
2019-05-30T02:08:31.043Z,6.66
2019-05-30T02:09:31.049Z,6.64
2019-05-30T02:10:31.060Z,6.61
2019-05-30T02:11:31.062Z,6.59
2019-05-30T02:12:31.070Z,6.55
2019-05-30T02:13:31.051Z,6.52
2019-05-30T02:14:31.060Z,6.50
2019-05-30T02:15:31.014Z,6.48
2019-05-30T02:16:31.086Z,6.46
2019-05-30T02:17:31.081Z,6.44
2019-05-30T02:18:31.072Z,6.43
2019-05-30T02:19:31.064Z,6.43
2019-05-30T02:20:31.036Z,6.42
2019-05-30T02:21:31.103Z,6.42
2019-05-30T02:22:31.020Z,6.41
2019-05-30T02:23:31.042Z,6.40
2019-05-30T02:24:31.043Z,6.38
2019-05-30T02:25:31.044Z,6.37
2019-05-30T02:26:31.116Z,6.37
2019-05-30T02:27:31.069Z,6.34
2019-05-30T02:28:31.034Z,6.32
2019-05-30T02:29:31.070Z,6.30
2019-05-30T02:30:31.095Z,6.29
2019-05-30T02:31:39.176Z,6.27
2019-05-30T02:32:31.030Z,6.25
2019-05-30T02:33:31.052Z,6.24
2019-05-30T02:34:31.054Z,6.21
2019-05-30T02:35:31.054Z,6.18
2019-05-30T02:36:31.111Z,6.16
2019-05-30T02:37:31.086Z,6.15
2019-05-30T02:38:31.068Z,6.12
2019-05-30T02:39:31.101Z,6.11
2019-05-30T02:40:31.082Z,6.08
2019-05-30T02:41:31.109Z,6.07
2019-05-30T02:42:31.065Z,6.06
2019-05-30T02:43:31.108Z,6.06
2019-05-30T02:44:31.110Z,6.05
2019-05-30T02:45:31.043Z,6.06
2019-05-30T02:46:31.144Z,6.07
2019-05-30T02:47:31.051Z,6.06
2019-05-30T02:48:31.098Z,6.07
2019-05-30T02:49:31.099Z,6.08
2019-05-30T02:50:31.072Z,6.05
2019-05-30T02:51:31.105Z,6.05
2019-05-30T02:52:31.074Z,6.05
2019-05-30T02:53:31.090Z,6.05
2019-05-30T02:54:31.097Z,6.03
2019-05-30T02:55:31.099Z,6.03
2019-05-30T02:56:31.083Z,6.02
2019-05-30T02:57:31.110Z,6.01
2019-05-30T02:58:31.050Z,6.00
2019-05-30T02:59:31.372Z,5.99
2019-05-30T03:00:31.103Z,6.00
2019-05-30T03:01:31.087Z,5.98
2019-05-30T03:02:31.104Z,5.98
2019-05-30T03:03:31.139Z,5.97
2019-05-30T03:04:31.145Z,5.97
2019-05-30T03:05:31.068Z,5.95
2019-05-30T03:06:31.129Z,5.93
2019-05-30T03:07:31.145Z,5.92
2019-05-30T03:08:31.078Z,5.90
2019-05-30T03:09:31.147Z,5.89
2019-05-30T03:10:31.102Z,5.88
2019-05-30T03:11:31.080Z,5.86
2019-05-30T03:12:31.137Z,5.85
2019-05-30T03:13:31.137Z,5.83
2019-05-30T03:14:31.097Z,5.81
2019-05-30T03:15:31.104Z,5.82
2019-05-30T03:16:31.121Z,5.81
2019-05-30T03:17:31.139Z,5.80
2019-05-30T03:18:31.138Z,5.79
2019-05-30T03:19:31.148Z,5.79
2019-05-30T03:20:31.130Z,5.78
2019-05-30T03:21:31.163Z,5.78
2019-05-30T03:22:31.163Z,5.77
2019-05-30T03:23:31.143Z,5.77
2019-05-30T03:24:31.140Z,5.76
2019-05-30T03:25:31.088Z,5.75
2019-05-30T03:26:31.083Z,5.75
2019-05-30T03:27:31.160Z,5.74
2019-05-30T03:28:31.110Z,5.73
2019-05-30T03:29:31.098Z,5.72
2019-05-30T03:30:31.110Z,5.71
2019-05-30T03:31:31.105Z,5.73
2019-05-30T03:33:02.406Z,5.72
2019-05-30T03:33:38.801Z,5.71
2019-05-30T03:34:31.145Z,5.70
2019-05-30T03:35:40.262Z,5.70
2019-05-30T03:36:32.026Z,5.68
2019-05-30T03:37:31.535Z,5.68
2019-05-30T03:38:31.105Z,5.69
2019-05-30T03:39:31.101Z,5.70
2019-05-30T03:40:32.039Z,5.71
2019-05-30T03:41:31.142Z,5.72
2019-05-30T03:42:31.158Z,5.73
2019-05-30T03:54:54.077Z,5.86
2019-05-30T03:55:54.112Z,5.87
2019-05-30T03:56:54.112Z,5.86
2019-05-30T03:57:54.118Z,5.87
2019-05-30T03:58:54.120Z,5.86
2019-05-30T03:59:54.117Z,5.87
2019-05-30T04:00:54.118Z,5.88
2019-05-30T04:01:54.151Z,5.88
2019-05-30T04:02:58.003Z,5.88
2019-05-30T04:03:54.116Z,5.89
2019-05-30T04:04:54.131Z,5.88
2019-05-30T04:05:54.155Z,5.89
2019-05-30T04:06:54.122Z,5.90
2019-05-30T04:07:54.124Z,5.91
2019-05-30T04:08:54.159Z,5.91
2019-05-30T04:09:54.098Z,5.93
2019-05-30T04:10:54.147Z,5.94
2019-05-30T04:11:54.096Z,5.95
2019-05-30T04:12:54.164Z,5.96
2019-05-30T04:13:54.157Z,5.97
2019-05-30T04:14:54.120Z,5.99
2019-05-30T04:15:54.144Z,6.00
2019-05-30T04:16:54.491Z,6.02
2019-05-30T04:17:54.136Z,6.03
2019-05-30T04:18:54.172Z,6.03
2019-05-30T04:19:54.141Z,6.06
2019-05-30T04:20:54.126Z,6.06
2019-05-30T04:21:54.174Z,6.07
2019-05-30T04:22:54.134Z,6.09
2019-05-30T04:23:54.147Z,6.11
2019-05-30T04:24:54.145Z,6.12
2019-05-30T04:25:54.158Z,6.14
2019-05-30T04:26:54.290Z,6.15
2019-05-30T04:27:54.175Z,6.16
2019-05-30T04:28:54.154Z,6.17
2019-05-30T04:29:54.147Z,6.19
2019-05-30T04:30:54.164Z,6.20
2019-05-30T04:31:54.194Z,6.23
2019-05-30T04:32:54.157Z,6.25
2019-05-30T04:33:54.139Z,6.25
2019-05-30T04:34:54.216Z,6.27
2019-05-30T04:35:54.190Z,6.28
2019-05-30T04:36:54.224Z,6.31
2019-05-30T04:37:54.160Z,6.30
2019-05-30T04:38:54.193Z,6.35
2019-05-30T04:39:54.326Z,6.38
2019-05-30T04:40:54.162Z,6.41
2019-05-30T04:41:54.566Z,6.43
2019-05-30T04:42:54.131Z,6.45
2019-05-30T04:43:54.184Z,6.48
2019-05-30T04:44:54.140Z,6.49
2019-05-30T04:45:54.157Z,6.50
2019-05-30T04:46:54.202Z,6.53
2019-05-30T04:47:54.172Z,6.54
2019-05-30T04:48:54.215Z,6.57
2019-05-30T04:49:54.175Z,6.62
2019-05-30T04:50:54.152Z,6.65
2019-05-30T04:51:54.198Z,6.70
2019-05-30T04:52:54.187Z,6.74
2019-05-30T04:53:54.197Z,6.79
2019-05-30T04:54:54.187Z,6.84
2019-05-30T04:55:54.191Z,6.87
2019-05-30T04:56:54.235Z,6.93
2019-05-30T04:57:54.194Z,6.97
2019-05-30T04:58:54.226Z,6.99
2019-05-30T04:59:54.203Z,7.02
2019-05-30T05:00:54.187Z,7.07
2019-05-30T05:01:54.184Z,7.10
2019-05-30T05:02:54.245Z,7.12
2019-05-30T05:03:54.231Z,7.16
2019-05-30T05:04:54.185Z,7.21
2019-05-30T05:05:54.202Z,7.25
2019-05-30T05:06:54.225Z,7.29
2019-05-30T05:07:54.225Z,7.34
2019-05-30T05:08:54.223Z,7.37
2019-05-30T05:09:54.199Z,7.41
2019-05-30T05:10:54.246Z,7.44
2019-05-30T05:11:54.235Z,7.51
2019-05-30T05:12:54.248Z,7.56
2019-05-30T05:13:54.204Z,7.62
2019-05-30T05:14:54.218Z,7.67
2019-05-30T05:15:54.204Z,7.68
2019-05-30T05:16:54.211Z,7.74
2019-05-30T05:17:54.228Z,7.77
2019-05-30T05:18:54.255Z,7.83
2019-05-30T05:19:54.220Z,7.86
2019-05-30T05:20:54.232Z,7.89
2019-05-30T05:21:54.266Z,7.96
2019-05-30T05:22:54.236Z,8.00
2019-05-30T05:23:54.240Z,8.03
2019-05-30T05:24:54.203Z,8.08
2019-05-30T05:26:00.806Z,8.11
2019-05-30T05:26:54.215Z,8.14
2019-05-30T05:27:54.262Z,8.18
2019-05-30T05:28:54.203Z,8.22
2019-05-30T05:29:54.247Z,8.24
2019-05-30T05:30:54.242Z,8.27
2019-05-30T05:31:54.243Z,8.31
2019-05-30T05:32:54.203Z,8.36
2019-05-30T05:33:57.117Z,8.39
2019-05-30T05:34:54.253Z,8.44
2019-05-30T05:35:54.224Z,8.47
2019-05-30T05:36:54.242Z,8.52
2019-05-30T05:37:54.255Z,8.56
2019-05-30T05:38:54.241Z,8.58
2019-05-30T05:39:54.270Z,8.61
2019-05-30T05:40:54.255Z,8.63
2019-05-30T05:41:54.229Z,8.65
2019-05-30T05:42:54.321Z,8.69
2019-05-30T05:43:54.330Z,8.73
2019-05-30T05:44:54.284Z,8.75
2019-05-30T05:45:54.277Z,8.80
2019-05-30T05:46:54.262Z,8.86
2019-05-30T05:47:54.254Z,8.90
2019-05-30T05:48:54.304Z,8.94
2019-05-30T05:49:54.357Z,8.96
2019-05-30T05:50:54.312Z,9.00
2019-05-30T05:51:54.243Z,9.03
2019-05-30T05:52:54.239Z,9.07
2019-05-30T05:53:54.222Z,9.08
2019-05-30T05:54:54.242Z,9.12
2019-05-30T05:55:54.303Z,9.17
2019-05-30T05:56:54.255Z,9.20
2019-05-30T05:57:54.228Z,9.22
2019-05-30T05:58:54.271Z,9.28
2019-05-30T05:59:54.285Z,9.28
2019-05-30T06:00:54.288Z,9.30
2019-05-30T06:01:54.288Z,9.35
2019-05-30T06:02:54.310Z,9.37
2019-05-30T06:03:54.263Z,9.39
2019-05-30T06:04:54.281Z,9.43
2019-05-30T06:05:54.281Z,9.45
2019-05-30T06:06:54.278Z,9.50
2019-05-30T06:07:54.268Z,9.53
2019-05-30T06:08:54.295Z,9.56
2019-05-30T06:09:54.287Z,9.57
2019-05-30T06:10:54.274Z,9.61
2019-05-30T06:11:54.283Z,9.64
2019-05-30T06:12:54.300Z,9.71
2019-05-30T06:13:54.283Z,9.76
2019-05-30T06:14:54.288Z,9.81
2019-05-30T06:15:54.285Z,9.83
2019-05-30T06:16:55.831Z,9.85
2019-05-30T06:17:54.310Z,9.88
2019-05-30T06:18:54.280Z,9.91
2019-05-30T06:19:58.112Z,9.95
2019-05-30T06:20:54.344Z,10.02
2019-05-30T06:21:56.349Z,10.08
2019-05-30T06:22:57.073Z,10.13
2019-05-30T06:23:54.292Z,10.19
2019-05-30T06:24:54.293Z,10.21
2019-05-30T06:25:54.346Z,10.26
2019-05-30T06:26:57.301Z,10.32
2019-05-30T06:27:58.107Z,10.31
2019-05-30T06:28:58.668Z,10.31
2019-05-30T06:29:58.613Z,10.35
2019-05-30T06:30:54.311Z,10.39
2019-05-30T06:31:56.662Z,10.42
2019-05-30T06:34:09.279Z,10.50
2019-05-30T06:38:54.312Z,10.73
2019-05-30T06:46:48.665Z,11.14
2019-05-30T06:53:45.685Z,11.31
2019-05-30T06:54:45.700Z,11.35
2019-05-30T06:55:47.810Z,11.36
2019-05-30T06:56:45.750Z,11.40
2019-05-30T06:57:45.751Z,11.43
2019-05-30T06:59:45.763Z,11.50
2019-05-30T07:00:45.709Z,11.56
2019-05-30T07:01:45.745Z,11.61
2019-05-30T07:02:45.704Z,11.67
2019-05-30T07:04:51.543Z,11.72
2019-05-30T07:05:46.027Z,11.76
2019-05-30T07:06:45.869Z,11.76
2019-05-30T07:07:45.877Z,11.77
2019-05-30T07:09:45.799Z,11.85
2019-05-30T07:10:45.741Z,11.88
2019-05-30T07:11:45.769Z,11.98
2019-05-30T07:12:45.713Z,12.02
2019-05-30T07:15:46.050Z,12.29
2019-05-30T07:16:45.703Z,12.37
2019-05-30T07:17:45.751Z,12.45
2019-05-30T07:18:45.712Z,12.49
2019-05-30T07:20:45.746Z,12.58
2019-05-30T07:21:45.737Z,12.57
2019-05-30T07:22:45.730Z,12.61
2019-05-30T07:23:45.720Z,12.59
2019-05-30T07:25:45.803Z,12.60
2019-05-30T07:26:45.814Z,12.59
2019-05-30T07:27:45.808Z,12.64
2019-05-30T07:28:45.815Z,12.69
2019-05-30T07:31:45.723Z,12.85
2019-05-30T07:32:45.735Z,12.91
2019-05-30T07:33:45.797Z,12.97
2019-05-30T07:34:46.144Z,13.05
2019-05-30T07:36:45.730Z,13.19
2019-05-30T07:37:46.664Z,13.26
2019-05-30T07:38:45.726Z,13.35
2019-05-30T07:39:45.780Z,13.42
2019-05-30T07:41:45.824Z,13.55
2019-05-30T07:42:45.775Z,13.63
2019-05-30T07:43:45.827Z,13.68
2019-05-30T07:44:45.832Z,13.76
2019-05-30T07:46:45.830Z,13.84
2019-05-30T07:47:45.797Z,13.87
2019-05-30T07:48:45.733Z,13.93
2019-05-30T07:49:45.790Z,13.99
2019-05-30T07:51:45.792Z,14.14
2019-05-30T07:52:45.797Z,14.21
2019-05-30T07:53:51.554Z,14.32
2019-05-30T07:54:45.828Z,14.39
2019-05-30T07:57:45.825Z,14.53
2019-05-30T07:58:45.829Z,14.61
2019-05-30T08:00:45.781Z,14.75
2019-05-30T08:02:45.809Z,14.88
2019-05-30T08:03:45.864Z,14.95
2019-05-30T08:04:47.038Z,15.00
2019-05-30T08:05:45.966Z,15.08
2019-05-30T08:07:45.809Z,15.21
2019-05-30T08:08:45.760Z,15.29
2019-05-30T08:09:45.831Z,15.30
2019-05-30T08:10:45.864Z,15.36
2019-05-30T08:12:45.915Z,15.42
2019-05-30T08:13:45.851Z,15.46
2019-05-30T08:14:45.868Z,15.56
2019-05-30T08:15:45.854Z,15.64
2019-05-30T08:43:45.902Z,18.05
2019-05-30T08:45:45.809Z,18.47
2019-05-30T08:46:45.884Z,18.31
2019-05-30T08:47:45.898Z,18.30
2019-05-30T08:48:45.901Z,18.13
2019-05-30T08:51:45.914Z,18.25
2019-05-30T08:52:45.817Z,18.36
2019-05-30T08:53:45.845Z,18.23
2019-05-30T08:54:45.888Z,18.17
2019-05-30T08:57:45.900Z,18.26
2019-05-30T08:58:45.875Z,18.25
2019-05-30T08:59:45.907Z,18.31
2019-05-30T09:00:45.884Z,18.39
2019-05-30T09:02:46.928Z,18.63
2019-05-30T09:03:46.276Z,18.77
2019-05-30T09:04:46.046Z,18.89
2019-05-30T09:05:59.309Z,18.91
2019-05-30T09:07:46.355Z,18.94
2019-05-30T09:08:46.389Z,18.84
2019-05-30T09:09:46.355Z,18.93
2019-05-30T09:10:46.500Z,18.87
2019-05-30T09:13:46.731Z,18.43
2019-05-30T09:14:46.933Z,18.40
2019-05-30T09:15:47.080Z,18.41
2019-05-30T09:16:46.556Z,18.23
2019-05-30T09:18:47.286Z,18.23
2019-05-30T09:19:47.417Z,18.37
2019-05-30T09:20:47.353Z,18.36
2019-05-30T09:21:45.946Z,18.46
2019-05-30T09:24:46.158Z,18.89
2019-05-30T09:25:49.017Z,19.01
2019-05-30T09:26:48.688Z,19.11
2019-05-30T09:27:46.655Z,19.25
2019-05-30T09:29:46.226Z,19.35
2019-05-30T09:30:46.498Z,19.29
2019-05-30T09:31:46.724Z,19.32
2019-05-30T09:32:46.986Z,19.13
2019-05-30T09:34:46.988Z,18.91
2019-05-30T09:35:46.988Z,18.97
2019-05-30T09:36:46.911Z,19.08
2019-05-30T09:37:46.449Z,19.29
2019-05-30T09:39:45.964Z,19.81
2019-05-30T09:40:45.936Z,20.07
2019-05-30T09:41:45.913Z,20.18
2019-05-30T09:42:46.922Z,20.30
2019-05-30T09:45:46.085Z,20.94
2019-05-30T09:46:46.982Z,21.09
2019-05-30T09:47:47.156Z,21.07
2019-05-30T09:48:46.693Z,20.94
2019-05-30T09:50:46.779Z,20.51
2019-05-30T09:51:46.976Z,20.44
2019-05-30T09:52:47.012Z,20.45
2019-05-30T09:53:46.082Z,20.59
2019-05-30T09:55:46.277Z,20.73
2019-05-30T09:56:46.564Z,20.70
2019-05-30T09:57:46.015Z,20.84
2019-05-30T09:58:46.145Z,21.06
2019-05-30T10:00:47.254Z,21.44
2019-05-30T10:01:46.090Z,21.59
2019-05-30T10:02:46.667Z,21.73
2019-05-30T10:03:46.541Z,21.81
2019-05-30T10:06:46.351Z,21.93
2019-05-30T10:07:47.393Z,21.63
2019-05-30T10:08:47.727Z,21.38
2019-05-30T10:09:47.089Z,21.51
2019-05-30T10:12:46.965Z,22.08
2019-05-30T10:13:47.480Z,22.38
2019-05-30T10:14:46.911Z,22.64
2019-05-30T10:15:46.923Z,22.57
2019-05-30T10:17:47.572Z,22.84
2019-05-30T10:18:47.245Z,22.98
2019-05-30T10:19:47.053Z,23.09
2019-05-30T10:20:47.679Z,23.25
2019-05-30T10:23:47.538Z,23.72
2019-05-30T10:24:47.541Z,23.84
2019-05-30T10:25:46.126Z,23.86
2019-05-30T10:26:47.112Z,23.93
2019-05-30T10:28:47.652Z,23.98
2019-05-30T10:29:47.527Z,24.00
2019-05-30T10:30:50.315Z,23.95
2019-05-30T10:31:46.520Z,23.91
2019-05-30T10:33:47.477Z,23.62
2019-05-30T10:34:46.626Z,23.55
2019-05-30T10:35:47.347Z,23.27
2019-05-30T10:36:47.257Z,23.19
2019-05-30T10:38:47.420Z,22.21
2019-05-30T10:39:47.263Z,21.77
2019-05-30T10:40:47.406Z,21.46
2019-05-30T10:41:47.188Z,21.54
2019-05-30T10:43:47.367Z,21.53
2019-05-30T10:44:47.503Z,21.61
2019-05-30T10:45:46.569Z,21.59
2019-05-30T10:46:47.228Z,21.46
2019-05-30T10:47:47.388Z,21.41
2019-05-30T10:49:46.847Z,21.22
2019-05-30T10:50:47.003Z,21.27
2019-05-30T10:51:46.739Z,21.26
2019-05-30T10:52:47.139Z,21.37
2019-05-30T10:54:46.735Z,21.09
2019-05-30T10:55:46.918Z,20.94
2019-05-30T10:56:47.063Z,20.75
2019-05-30T10:57:47.024Z,20.59
2019-05-30T10:59:47.256Z,20.26
2019-05-30T11:00:48.533Z,20.37
2019-05-30T11:01:47.101Z,20.60
2019-05-30T11:02:47.491Z,20.80
2019-05-30T11:04:47.296Z,21.33
2019-05-30T11:05:47.177Z,21.60
2019-05-30T11:07:01.282Z,21.87
2019-05-30T11:08:00.299Z,22.01
2019-05-30T11:10:46.390Z,22.74
2019-05-30T11:11:46.654Z,22.98
2019-05-30T11:12:46.657Z,23.10
2019-05-30T11:13:46.873Z,22.94
2019-05-30T11:15:47.080Z,22.67
2019-05-30T11:16:47.041Z,22.73
2019-05-30T11:17:47.237Z,22.64
2019-05-30T11:18:47.486Z,22.55
2019-05-30T11:20:46.053Z,22.41
2019-05-30T11:21:46.129Z,21.99
2019-05-30T11:22:46.065Z,22.01
2019-05-30T11:23:46.084Z,21.72
2019-05-30T11:25:46.048Z,21.06
2019-05-30T11:26:46.045Z,20.67
2019-05-30T11:27:46.119Z,20.31
2019-05-30T11:28:46.054Z,20.01
2019-05-30T11:30:46.088Z,19.53
2019-05-30T11:31:46.055Z,19.36
2019-05-30T11:32:46.058Z,19.14
2019-05-30T11:33:46.076Z,19.04
2019-05-30T11:35:46.063Z,19.52
2019-05-30T11:36:46.104Z,19.85
2019-05-30T11:37:46.122Z,20.18
2019-05-30T11:38:46.138Z,20.56
2019-05-30T11:40:46.139Z,20.91
2019-05-30T11:41:46.154Z,20.94
2019-05-30T11:42:46.106Z,20.81
2019-05-30T11:43:46.166Z,20.72
2019-05-30T11:45:46.139Z,20.66
2019-05-30T11:46:46.144Z,20.75
2019-05-30T11:47:46.060Z,20.90
2019-05-30T11:48:46.114Z,21.07
2019-05-30T11:50:46.138Z,21.63
2019-05-30T11:51:46.152Z,21.93
2019-05-30T11:52:46.156Z,22.23
2019-05-30T11:53:46.136Z,22.51
2019-05-30T11:55:46.133Z,22.98
2019-05-30T11:56:46.123Z,23.22
2019-05-30T11:57:46.185Z,23.43
2019-05-30T11:58:46.169Z,23.68
2019-05-30T12:00:46.159Z,23.72
2019-05-30T12:01:46.210Z,23.60
2019-05-30T12:02:46.162Z,23.48
2019-05-30T12:03:46.187Z,23.28
2019-05-30T12:05:46.157Z,22.86
2019-05-30T12:06:46.115Z,22.65
2019-05-30T12:07:46.198Z,22.57
2019-05-30T12:08:46.185Z,22.65
2019-05-30T12:10:46.183Z,22.62
2019-05-30T12:11:46.190Z,22.53
2019-05-30T12:12:46.177Z,22.37
2019-05-30T12:13:46.120Z,22.12
2019-05-30T12:15:46.152Z,21.68
2019-05-30T12:16:46.204Z,21.50
2019-05-30T12:17:46.176Z,21.22
2019-05-30T12:18:46.205Z,20.97
2019-05-30T12:21:46.238Z,20.54
2019-05-30T12:22:46.213Z,20.36
2019-05-30T12:23:46.205Z,20.25
2019-05-30T12:24:46.140Z,20.12
2019-05-30T12:27:46.134Z,19.72
2019-05-30T12:28:46.231Z,19.67
2019-05-30T12:29:46.169Z,19.68
2019-05-30T12:30:55.782Z,19.86
2019-05-30T12:32:46.225Z,20.55
2019-05-30T12:33:46.148Z,21.00
2019-05-30T12:34:46.189Z,21.42
2019-05-30T12:35:46.192Z,21.91
2019-05-30T12:37:54.912Z,22.64
2019-05-30T12:38:46.156Z,22.97
2019-05-30T12:39:46.223Z,23.36
2019-05-30T12:40:46.166Z,23.57
2019-05-30T12:42:46.230Z,23.63
2019-05-30T12:43:46.490Z,23.86
2019-05-30T12:44:46.199Z,24.06
2019-05-30T12:45:46.197Z,24.28
2019-05-30T12:47:46.203Z,24.61
2019-05-30T12:48:46.250Z,24.67
2019-05-30T12:49:46.237Z,24.79
2019-05-30T12:50:46.210Z,24.92
2019-05-30T12:52:46.210Z,24.93
2019-05-30T12:53:49.105Z,25.03
2019-05-30T12:54:46.191Z,25.12
2019-05-30T12:55:46.205Z,25.21
2019-05-30T12:58:46.326Z,25.46
2019-05-30T12:59:46.179Z,25.51
2019-05-30T13:00:46.216Z,25.53
2019-05-30T13:01:46.304Z,25.47
2019-05-30T13:03:46.187Z,25.33
2019-05-30T13:04:46.278Z,25.08
2019-05-30T13:05:46.249Z,24.78
2019-05-30T13:06:46.263Z,24.52
2019-05-30T13:08:46.268Z,23.61
2019-05-30T13:09:46.212Z,23.28
2019-05-30T13:10:46.263Z,22.95
2019-05-30T13:11:46.305Z,22.68
2019-05-30T13:13:46.225Z,22.14
2019-05-30T13:14:46.299Z,21.85
2019-05-30T13:15:46.284Z,21.66
2019-05-30T13:16:46.257Z,21.41
2019-05-30T13:19:46.257Z,20.92
2019-05-30T13:20:46.221Z,20.93
2019-05-30T13:21:46.374Z,21.04
2019-05-30T13:22:46.278Z,21.20
2019-05-30T13:24:46.300Z,21.48
2019-05-30T13:25:46.282Z,21.64
2019-05-30T13:26:46.299Z,21.67
2019-05-30T13:27:46.262Z,21.66
2019-05-30T13:30:46.305Z,21.84
2019-05-30T13:31:46.329Z,22.02
2019-05-30T13:32:46.324Z,22.28
2019-05-30T13:33:46.316Z,22.54
2019-05-30T13:35:46.294Z,23.04
2019-05-30T13:36:46.289Z,23.16
2019-05-30T13:37:46.305Z,23.15
2019-05-30T13:38:46.325Z,23.11
2019-05-30T13:41:46.283Z,22.82
2019-05-30T13:42:46.339Z,22.66
2019-05-30T13:43:46.275Z,22.45
2019-05-30T13:44:46.339Z,22.45
2019-05-30T13:46:46.325Z,22.04
2019-05-30T13:47:46.319Z,21.98
2019-05-30T13:48:46.304Z,21.97
2019-05-30T13:49:46.309Z,21.92
2019-05-30T13:51:46.290Z,21.93
2019-05-30T13:52:46.322Z,22.01
2019-05-30T13:53:46.370Z,22.01
2019-05-30T13:54:46.569Z,21.99
2019-05-30T13:57:46.359Z,21.52
2019-05-30T13:58:46.321Z,21.45
2019-05-30T13:59:46.364Z,21.41
2019-05-30T14:00:46.333Z,21.47
2019-05-30T14:02:46.402Z,21.63
2019-05-30T14:03:46.286Z,21.65
2019-05-30T14:04:46.332Z,21.58
2019-05-30T14:05:46.354Z,21.51
2019-05-30T14:07:46.373Z,21.27
2019-05-30T14:08:46.300Z,21.07
2019-05-30T14:09:46.379Z,20.93
2019-05-30T14:10:46.363Z,20.74
2019-05-30T14:13:46.377Z,20.15
2019-05-30T14:14:46.370Z,20.20
2019-05-30T14:15:46.353Z,20.29
2019-05-30T14:16:46.344Z,20.33
2019-05-30T14:18:46.414Z,20.38
2019-05-30T14:19:46.392Z,20.38
2019-05-30T14:20:46.394Z,20.35
2019-05-30T14:21:46.325Z,20.31
2019-05-30T14:23:46.322Z,20.23
2019-05-30T14:24:46.677Z,20.33
2019-05-30T14:25:46.429Z,20.32
2019-05-30T14:26:46.377Z,20.26
2019-05-30T14:28:46.675Z,20.17
2019-05-30T14:29:46.371Z,20.10
2019-05-30T14:30:46.430Z,20.01
2019-05-30T14:31:46.374Z,19.91
2019-05-30T14:33:46.327Z,19.70
2019-05-30T14:34:46.384Z,19.59
2019-05-30T14:35:46.339Z,19.49
2019-05-30T14:36:46.415Z,19.53
2019-05-30T14:38:57.945Z,19.61
2019-05-30T14:39:46.305Z,19.72
2019-05-30T14:40:46.400Z,19.86
2019-05-30T14:41:46.447Z,19.95
2019-05-30T14:43:46.435Z,20.10
2019-05-30T14:44:46.395Z,20.11
2019-05-30T14:45:46.431Z,20.12
2019-05-30T14:46:46.519Z,20.19
2019-05-30T14:48:46.414Z,20.19
2019-05-30T14:49:46.407Z,20.09
2019-05-30T14:50:46.389Z,19.90
2019-05-30T14:51:46.376Z,19.81
2019-05-30T14:53:46.401Z,19.77
2019-05-30T14:54:46.352Z,19.75
2019-05-30T14:55:46.419Z,19.79
2019-05-30T14:56:46.450Z,19.71
2019-05-30T14:58:46.423Z,19.56
2019-05-30T14:59:46.422Z,19.56
2019-05-30T15:00:46.409Z,19.52
2019-05-30T15:01:46.420Z,19.46
2019-05-30T15:03:46.415Z,19.50
2019-05-30T15:04:46.458Z,19.47
2019-05-30T15:05:46.414Z,19.52
2019-05-30T15:06:46.427Z,19.53
2019-05-30T15:08:46.446Z,19.63
2019-05-30T15:09:46.443Z,19.67
2019-05-30T15:10:46.464Z,19.74
2019-05-30T15:11:46.408Z,19.81
2019-05-30T15:13:46.463Z,19.92
2019-05-30T15:14:46.465Z,19.94
2019-05-30T15:15:46.446Z,19.98
2019-05-30T15:16:46.445Z,20.01
2019-05-30T15:18:46.474Z,20.07
2019-05-30T15:19:46.453Z,20.11
2019-05-30T15:20:46.436Z,20.13
2019-05-30T15:21:46.486Z,20.14
2019-05-30T15:23:46.450Z,20.16
2019-05-30T15:24:46.481Z,20.14
2019-05-30T15:25:46.459Z,20.15
2019-05-30T15:26:46.419Z,20.16
2019-05-30T15:28:46.475Z,20.12
2019-05-30T15:29:46.448Z,20.15
2019-05-30T15:30:46.459Z,20.12
2019-05-30T15:31:46.414Z,20.12
2019-05-30T15:33:46.458Z,20.08
2019-05-30T15:34:46.487Z,20.09
2019-05-30T15:35:46.447Z,20.08
2019-05-30T15:36:46.462Z,20.07
2019-05-30T15:39:46.425Z,20.02
2019-05-30T15:40:46.469Z,20.00
2019-05-30T15:41:46.509Z,19.97
2019-05-30T15:42:46.484Z,19.96
2019-05-30T15:45:46.519Z,19.89
2019-05-30T15:46:46.536Z,19.82
2019-05-30T15:47:46.477Z,19.69
2019-05-30T15:48:46.553Z,19.60
2019-05-30T15:50:46.547Z,19.41
2019-05-30T15:51:46.436Z,19.34
2019-05-30T15:52:46.542Z,19.28
2019-05-30T15:53:46.550Z,19.20
2019-05-30T15:55:46.517Z,19.12
2019-05-30T15:56:46.572Z,19.07
2019-05-30T15:57:46.449Z,19.05
2019-05-30T15:58:46.453Z,19.05
2019-05-30T16:01:46.545Z,19.03
2019-05-30T16:02:46.598Z,19.03
2019-05-30T16:03:46.534Z,18.99